Time;durP1;ratioP1;P1;durP2;ratioP2;P2;SDS_P1;SDS_P2;PMS_P1;PMS_P2;Temp;Humidity;BMP_temperature;BMP_pressure;BME280_temperature;BME280_humidity;BME280_pressure;Samples;Min_cycle;Max_cycle;Signal;HPM_P1;HPM_P2
2022/02/24 00:00:06;;;;;;;2.30;1.90;;;;;;;6.22;42.35;99536.06;5021893;28;20090;-74
2022/02/24 00:02:39;;;;;;;4.40;1.80;;;;;;;5.92;42.21;99496.53;5072374;28;20381;-74
2022/02/24 00:05:06;;;;;;;2.73;1.90;;;;;;;6.14;42.34;99531.47;5054664;28;20131;-74
2022/02/24 00:07:32;;;;;;;2.00;1.80;;;;;;;5.99;42.65;99527.50;5054648;28;20079;-74
2022/02/24 00:09:58;;;;;;;2.40;1.80;;;;;;;6.01;42.46;99525.56;5022023;28;20475;-74
2022/02/24 00:12:23;;;;;;;4.30;2.20;;;;;;;6.10;42.11;99540.63;5022877;28;20043;-74
2022/02/24 00:14:50;;;;;;;2.77;2.37;;;;;;;5.98;42.37;99533.72;5039515;28;20055;-74
2022/02/24 00:17:16;;;;;;;1.73;1.60;;;;;;;6.05;42.20;99532.25;5040182;28;20044;-74
2022/02/24 00:19:41;;;;;;;2.53;1.90;;;;;;;6.08;42.12;99534.63;5056523;28;20051;-74
2022/02/24 00:22:07;;;;;;;2.23;1.90;;;;;;;6.06;42.21;99544.47;5023264;28;20423;-74
2022/02/24 00:24:33;;;;;;;3.30;1.60;;;;;;;5.99;42.20;99538.06;5023505;28;20643;-75
2022/02/24 00:26:59;;;;;;;2.43;1.90;;;;;;;5.95;42.38;99543.72;5024142;28;20036;-74
2022/02/24 00:29:25;;;;;;;2.13;1.77;;;;;;;5.98;42.35;99561.91;5024509;28;20048;-75
2022/02/24 00:31:51;;;;;;;2.23;2.00;;;;;;;5.87;42.65;99559.34;5040185;28;20103;-75
2022/02/24 00:34:22;;;;;;;2.10;1.90;;;;;;;5.89;42.58;99552.97;5039527;28;20040;-73
2022/02/24 00:36:53;;;;;;;3.07;1.70;;;;;;;6.14;42.40;99542.00;5057087;28;20487;-74
2022/02/24 00:39:20;;;;;;;2.20;1.75;;;;;;;6.02;42.66;99558.88;5023106;28;20091;-74
2022/02/24 00:41:47;;;;;;;1.73;1.60;;;;;;;5.92;42.27;99552.72;5055964;28;20147;-74
2022/02/24 00:44:13;;;;;;;1.90;1.70;;;;;;;5.92;42.44;99557.97;5039957;28;20458;-73
2022/02/24 00:46:40;;;;;;;4.17;1.70;;;;;;;5.97;41.98;99560.22;5040554;28;20059;-74
2022/02/24 00:49:07;;;;;;;1.63;1.47;;;;;;;6.00;42.13;99566.06;5040148;28;20036;-75
2022/02/24 00:51:34;;;;;;;3.10;1.50;;;;;;;6.01;42.16;99564.28;5039673;28;20108;-75
2022/02/24 00:54:00;;;;;;;2.23;1.90;;;;;;;5.92;42.39;99563.25;5055751;28;20125;-74
2022/02/24 00:56:26;;;;;;;2.23;1.80;;;;;;;5.79;42.13;99562.59;5038791;28;20043;-75
2022/02/24 00:58:52;;;;;;;2.07;1.80;;;;;;;5.85;42.26;99558.63;5038913;28;20036;-75
2022/02/24 01:01:18;;;;;;;2.00;1.80;;;;;;;5.81;42.18;99565.94;5055948;28;20044;-75
2022/02/24 01:03:44;;;;;;;2.10;1.80;;;;;;;5.85;41.62;99566.53;5040464;28;20040;-75
2022/02/24 01:06:10;;;;;;;1.63;1.40;;;;;;;5.92;40.79;99573.78;5039838;28;20052;-74
2022/02/24 01:08:36;;;;;;;1.33;1.23;;;;;;;5.94;40.04;99581.56;5038688;28;20055;-75
2022/02/24 01:11:02;;;;;;;1.70;1.60;;;;;;;5.90;40.80;99572.28;5022511;28;20066;-75
2022/02/24 01:13:28;;;;;;;2.10;1.47;;;;;;;5.80;40.59;99558.16;5072729;28;20051;-76
2022/02/24 01:15:54;;;;;;;2.23;1.60;;;;;;;5.93;40.66;99577.28;5038752;28;20423;-75
2022/02/24 01:18:20;;;;;;;1.90;1.70;;;;;;;5.90;40.72;99578.38;5039006;28;20892;-74
2022/02/24 01:20:46;;;;;;;2.80;2.10;;;;;;;5.90;40.99;99567.84;5038074;28;20040;-75
2022/02/24 01:23:12;;;;;;;3.23;1.90;;;;;;;5.97;41.23;99584.78;5022378;28;20097;-75
2022/02/24 01:25:37;;;;;;;2.57;1.97;;;;;;;6.09;41.33;99591.66;5055852;28;20146;-75
2022/02/24 01:28:04;;;;;;;3.30;1.90;;;;;;;6.12;41.31;99591.38;5022189;28;20557;-75
2022/02/24 01:30:29;;;;;;;3.20;2.40;;;;;;;6.07;41.34;99592.75;5039310;28;20101;-75
2022/02/24 01:32:56;;;;;;;2.27;1.90;;;;;;;6.10;41.03;99598.63;5039258;28;20044;-75
2022/02/24 01:35:22;;;;;;;1.63;1.53;;;;;;;6.07;40.86;99601.50;5038995;28;20036;-75
2022/02/24 01:37:48;;;;;;;2.37;1.97;;;;;;;6.14;40.69;99597.38;5039616;28;20047;-74
2022/02/24 01:40:15;;;;;;;2.03;1.67;;;;;;;6.19;40.45;99607.53;5039874;28;20051;-76
2022/02/24 01:42:41;;;;;;;3.20;1.73;;;;;;;6.15;40.38;99601.66;5039132;28;20043;-76
2022/02/24 01:45:10;;;;;;;2.80;1.97;;;;;;;6.27;40.25;99597.16;5055177;28;20408;-76
2022/02/24 01:47:36;;;;;;;3.13;1.80;;;;;;;6.13;40.19;99608.91;5071740;28;20492;-75
2022/02/24 01:50:03;;;;;;;2.10;1.83;;;;;;;6.31;40.12;99607.31;5038714;28;20120;-78
2022/02/24 01:52:29;;;;;;;1.93;1.73;;;;;;;6.16;40.02;99610.44;5072124;28;20067;-76
2022/02/24 01:54:55;;;;;;;1.87;1.63;;;;;;;6.22;40.13;99618.66;5038996;28;20117;-75
2022/02/24 01:57:22;;;;;;;2.73;1.97;;;;;;;6.28;39.82;99620.75;5023201;28;20074;-75
2022/02/24 01:59:49;;;;;;;3.93;1.60;;;;;;;6.39;39.53;99612.78;5039369;28;20067;-74
2022/02/24 02:02:15;;;;;;;3.33;2.07;;;;;;;6.33;39.22;99618.56;5072061;28;20171;-75
2022/02/24 02:04:42;;;;;;;2.17;1.80;;;;;;;6.35;39.39;99587.59;5055158;28;20169;-75
2022/02/24 02:07:08;;;;;;;1.87;1.57;;;;;;;6.39;39.36;99612.78;5055491;28;20055;-75
2022/02/24 02:09:34;;;;;;;4.63;1.70;;;;;;;6.53;39.41;99617.66;5042316;28;20048;-75
2022/02/24 02:12:01;;;;;;;2.03;1.73;;;;;;;6.38;39.35;99616.34;5043208;28;20043;-75
2022/02/24 02:14:28;;;;;;;2.17;1.67;;;;;;;6.45;38.93;99625.44;5061118;28;20172;-75
2022/02/24 02:16:56;;;;;;;3.53;1.70;;;;;;;6.50;38.87;99622.38;5042992;28;20176;-76
2022/02/24 02:19:21;;;;;;;2.50;1.60;;;;;;;6.42;38.55;99620.41;5026020;28;20044;-75
2022/02/24 02:21:48;;;;;;;3.07;1.57;;;;;;;6.50;38.52;99631.13;5041981;28;20062;-75
2022/02/24 02:24:14;;;;;;;2.57;1.70;;;;;;;6.54;38.61;99626.41;5058515;28;20097;-75
2022/02/24 02:26:40;;;;;;;3.80;2.00;;;;;;;6.42;38.63;99609.88;5041802;28;20046;-75
2022/02/24 02:29:11;;;;;;;7.47;2.10;;;;;;;6.75;38.58;99635.09;5041814;28;20488;-76
2022/02/24 02:31:37;;;;;;;;;;;;;;;6.99;38.04;99643.53;5043197;28;20043;-75
2022/02/24 02:34:07;;;;;;;4.63;1.50;;;;;;;6.68;38.70;99636.63;5043017;28;19920;-74
2022/02/24 02:36:35;;;;;;;1.45;1.35;;;;;;;6.46;38.75;99624.44;5075404;28;20399;-77
2022/02/24 02:39:02;;;;;;;3.20;1.70;;;;;;;6.44;39.26;99644.84;5024737;28;20040;-76
2022/02/24 02:41:29;;;;;;;1.87;1.60;;;;;;;6.55;39.02;99633.41;5074466;28;20376;-76
2022/02/24 02:43:55;;;;;;;2.07;1.87;;;;;;;6.42;39.15;99638.88;5040669;28;20288;-74
2022/02/24 02:46:21;;;;;;;2.33;1.70;;;;;;;6.36;39.37;99643.84;5041258;28;20483;-75
2022/02/24 02:48:47;;;;;;;2.47;1.80;;;;;;;6.38;39.36;99657.75;5024649;28;20040;-76
2022/02/24 02:51:13;;;;;;;2.77;1.93;;;;;;;6.31;39.57;99646.88;5024841;28;20147;-75
2022/02/24 02:53:39;;;;;;;2.87;2.33;;;;;;;6.27;40.04;99640.16;5039921;28;20051;-75
2022/02/24 02:56:05;;;;;;;3.17;2.33;;;;;;;6.32;39.91;99642.44;5054855;28;20123;-75
2022/02/24 02:58:31;;;;;;;3.40;2.40;;;;;;;6.30;40.07;99645.22;5054745;28;20070;-74
2022/02/24 03:00:57;;;;;;;3.10;2.20;;;;;;;6.23;40.05;99645.84;5037639;28;20143;-74
2022/02/24 03:03:24;;;;;;;3.40;2.23;;;;;;;6.24;40.05;99650.97;5038897;28;20043;-75
2022/02/24 03:05:51;;;;;;;5.43;2.23;;;;;;;6.33;40.33;99652.88;5056428;28;20048;-75
2022/02/24 03:08:17;;;;;;;3.67;2.30;;;;;;;6.16;40.71;99650.81;5056545;28;20060;-75
2022/02/24 03:10:44;;;;;;;4.13;2.30;;;;;;;6.18;40.59;99661.25;5056358;28;20043;-76
2022/02/24 03:13:10;;;;;;;4.47;2.33;;;;;;;6.19;40.52;99671.66;5057933;28;20071;-75
2022/02/24 03:15:35;;;;;;;3.00;2.30;;;;;;;6.21;40.75;99660.97;5041530;28;20460;-74
2022/02/24 03:18:02;;;;;;;3.33;2.10;;;;;;;6.04;40.83;99641.28;5025498;28;20130;-74
2022/02/24 03:20:32;;;;;;;6.93;3.00;;;;;;;6.07;40.91;99662.16;5040837;28;20418;-75
2022/02/24 03:23:00;;;;;;;3.63;2.33;;;;;;;6.17;41.17;99673.56;5041642;28;20036;-74
2022/02/24 03:25:26;;;;;;;4.10;2.37;;;;;;;6.10;41.17;99664.53;5075544;28;20154;-74
2022/02/24 03:27:54;;;;;;;8.83;2.80;;;;;;;6.18;41.59;99669.16;5041304;28;20130;-75
2022/02/24 03:30:21;;;;;;;7.10;3.10;;;;;;;5.85;42.05;99670.16;5040647;28;20047;-75
2022/02/24 03:32:48;;;;;;;3.60;2.63;;;;;;;5.74;42.32;99671.97;5057581;28;20062;-76
2022/02/24 03:35:14;;;;;;;3.83;2.83;;;;;;;5.62;42.61;99675.63;5057151;28;20472;-75
2022/02/24 03:37:40;;;;;;;3.63;2.97;;;;;;;5.80;42.51;99672.31;5057254;28;20123;-75
2022/02/24 03:40:07;;;;;;;3.27;2.73;;;;;;;5.93;42.38;99678.28;5040745;28;20047;-76
2022/02/24 03:42:34;;;;;;;4.53;2.73;;;;;;;5.79;43.03;99680.34;5041943;28;20043;-77
2022/02/24 03:45:01;;;;;;;5.40;2.87;;;;;;;5.82;42.80;99685.41;5057782;28;20043;-74
2022/02/24 03:47:29;;;;;;;4.93;2.90;;;;;;;5.78;42.71;99690.03;5040857;28;20580;-75
2022/02/24 03:49:55;;;;;;;8.40;2.87;;;;;;;5.77;42.76;99691.00;5040315;28;20047;-76
2022/02/24 03:52:21;;;;;;;3.17;2.43;;;;;;;5.72;43.36;99701.09;5023541;28;20040;-75
2022/02/24 03:54:47;;;;;;;3.80;2.90;;;;;;;5.79;43.18;99704.91;5056779;28;20376;-75
2022/02/24 03:57:16;;;;;;;7.23;3.60;;;;;;;5.80;43.39;99709.19;5039697;28;20051;-74
2022/02/24 03:59:42;;;;;;;4.00;3.03;;;;;;;5.71;43.41;99707.31;5039996;28;20212;-74
2022/02/24 04:02:08;;;;;;;9.57;3.10;;;;;;;5.80;43.37;99711.00;5091567;28;20376;-74
2022/02/24 04:04:35;;;;;;;4.00;2.90;;;;;;;5.85;43.26;99717.59;5023803;28;20040;-74
2022/02/24 04:07:02;;;;;;;4.10;3.00;;;;;;;5.89;43.62;99726.94;5071993;28;20554;-75
2022/02/24 04:09:28;;;;;;;4.70;3.00;;;;;;;5.92;43.20;99729.31;5055548;28;20054;-76
2022/02/24 04:11:54;;;;;;;6.70;3.20;;;;;;;5.95;43.41;99730.88;5055334;28;20097;-76
2022/02/24 04:14:21;;;;;;;3.87;3.07;;;;;;;5.89;43.13;99724.28;5038942;28;20120;-75
2022/02/24 04:16:48;;;;;;;7.33;2.93;;;;;;;5.85;43.61;99736.06;5023105;28;20189;-76
2022/02/24 04:19:16;;;;;;;3.53;2.97;;;;;;;5.85;43.82;99730.78;5040634;28;20047;-77
2022/02/24 04:21:42;;;;;;;4.53;3.17;;;;;;;5.87;43.74;99743.84;5039629;28;20153;-75
2022/02/24 04:24:08;;;;;;;4.30;3.20;;;;;;;5.74;44.01;99738.69;5055712;28;20044;-75
2022/02/24 04:26:34;;;;;;;3.50;2.70;;;;;;;5.83;43.59;99752.94;5038833;28;20505;-75
2022/02/24 04:29:01;;;;;;;4.30;2.87;;;;;;;5.92;43.50;99758.31;5038626;28;20279;-74
2022/02/24 04:31:27;;;;;;;5.50;3.40;;;;;;;5.83;44.04;99750.31;5038687;28;20052;-77
2022/02/24 04:33:53;;;;;;;6.13;3.30;;;;;;;5.75;44.12;99763.25;5072603;28;20036;-76
2022/02/24 04:36:20;;;;;;;5.00;3.30;;;;;;;5.74;44.24;99761.56;5040421;28;20107;-74
2022/02/24 04:38:47;;;;;;;4.13;3.20;;;;;;;5.79;44.06;99773.44;5048341;28;20036;-76
2022/02/24 04:41:13;;;;;;;4.80;3.10;;;;;;;5.66;44.16;99767.47;5057006;28;20058;-76
2022/02/24 04:43:40;;;;;;;6.10;3.53;;;;;;;5.54;44.35;99755.28;5074272;28;20192;-76
2022/02/24 04:46:06;;;;;;;6.83;3.60;;;;;;;5.79;44.23;99786.59;5041004;28;20120;-76
2022/02/24 04:48:32;;;;;;;9.67;3.33;;;;;;;5.81;44.32;99787.28;5091712;28;20040;-75
2022/02/24 04:50:58;;;;;;;7.57;3.60;;;;;;;5.80;44.50;99795.31;5062598;28;20043;-74
2022/02/24 04:53:24;;;;;;;5.47;3.27;;;;;;;5.78;44.33;99787.53;5064344;28;20059;-75
2022/02/24 04:55:50;;;;;;;4.80;3.37;;;;;;;5.85;44.32;99798.47;5042425;28;20491;-75
2022/02/24 04:58:16;;;;;;;5.00;4.00;;;;;;;5.94;44.52;99801.19;5041804;28;20047;-77
2022/02/24 05:00:42;;;;;;;4.37;3.50;;;;;;;5.83;44.61;99809.13;5040618;28;20047;-77
2022/02/24 05:03:08;;;;;;;4.97;3.20;;;;;;;5.85;44.46;99804.59;5058286;28;20062;-76
2022/02/24 05:05:34;;;;;;;8.53;3.63;;;;;;;5.86;44.33;99814.16;5091146;28;20100;-72
2022/02/24 05:08:00;;;;;;;8.63;3.63;;;;;;;5.91;44.11;99814.63;5074031;28;20150;-75
2022/02/24 05:10:26;;;;;;;5.53;3.20;;;;;;;5.97;44.24;99814.13;5057162;28;20047;-67
2022/02/24 05:12:52;;;;;;;4.83;3.13;;;;;;;5.94;44.24;99822.28;5089510;28;20047;-67
2022/02/24 05:15:18;;;;;;;5.73;3.57;;;;;;;5.84;44.50;99813.47;5057497;28;20047;-68
2022/02/24 05:17:44;;;;;;;5.10;3.30;;;;;;;5.88;44.30;99824.56;5073706;28;20138;-67
2022/02/24 05:20:12;;;;;;;6.00;3.93;;;;;;;5.92;44.61;99834.75;5091088;28;20115;-68
2022/02/24 05:22:43;;;;;;;8.10;3.63;;;;;;;5.87;44.67;99828.19;5074629;28;20043;-68
2022/02/24 05:25:13;;;;;;;;;;;;;;;6.30;44.01;99839.53;5058681;28;20075;-68
2022/02/24 05:27:42;;;;;;;5.70;2.70;;;;;;;6.05;43.74;99830.16;5056770;28;19916;-69
2022/02/24 05:30:10;;;;;;;6.50;3.40;;;;;;;5.90;44.29;99815.59;5057876;28;20062;-68
2022/02/24 05:32:35;;;;;;;5.23;3.80;;;;;;;5.77;44.37;99833.31;5073494;28;20047;-66
2022/02/24 05:35:03;;;;;;;13.53;7.50;;;;;;;6.13;44.50;99845.34;5089798;28;20044;-67
2022/02/24 05:37:29;;;;;;;8.33;3.87;;;;;;;5.80;44.62;99846.25;5073216;28;20038;-68
2022/02/24 05:39:56;;;;;;;9.20;4.10;;;;;;;6.10;44.19;99848.25;5073327;28;20044;-67
2022/02/24 05:42:22;;;;;;;8.83;4.97;;;;;;;6.12;44.21;99857.69;5057144;28;20448;-68
2022/02/24 05:44:49;;;;;;;5.60;4.10;;;;;;;6.15;44.04;99854.81;5060643;28;20051;-68
2022/02/24 05:47:15;;;;;;;6.17;3.77;;;;;;;6.17;43.68;99852.88;5077519;28;20043;-68
2022/02/24 05:49:41;;;;;;;6.93;3.70;;;;;;;6.10;43.87;99851.72;5077446;28;20044;-70
2022/02/24 05:52:07;;;;;;;4.87;3.20;;;;;;;6.15;43.72;99856.63;5094623;28;20094;-67
2022/02/24 05:54:33;;;;;;;7.80;3.60;;;;;;;6.30;43.30;99856.22;5060246;28;20082;-68
2022/02/24 05:56:59;;;;;;;58.40;25.83;;;;;;;6.33;43.31;99861.25;5060715;28;20044;-68
2022/02/24 05:59:25;;;;;;;7.20;4.37;;;;;;;6.20;43.07;99825.41;5044191;28;20047;-70
2022/02/24 06:01:54;;;;;;;7.40;4.23;;;;;;;6.37;42.93;99848.63;5077356;28;20096;-68
2022/02/24 06:04:20;;;;;;;13.93;5.50;;;;;;;6.50;42.81;99852.75;5060716;28;20074;-66
2022/02/24 06:06:46;;;;;;;7.67;3.80;;;;;;;6.62;43.01;99867.59;5058122;28;20408;-68
2022/02/24 06:09:12;;;;;;;7.77;3.90;;;;;;;6.54;42.53;99835.72;5055879;28;20040;-68
2022/02/24 06:11:38;;;;;;;6.67;3.87;;;;;;;6.75;42.45;99883.22;5049849;28;20035;-67
2022/02/24 06:14:04;;;;;;;4.83;3.60;;;;;;;6.83;42.21;99878.13;5049106;28;20040;-67
2022/02/24 06:16:30;;;;;;;5.37;3.30;;;;;;;6.90;42.05;99888.03;5064865;28;20036;-68
2022/02/24 06:18:56;;;;;;;5.53;3.60;;;;;;;6.76;41.98;99892.81;5064491;28;20047;-67
2022/02/24 06:21:22;;;;;;;6.43;3.83;;;;;;;6.67;41.83;99880.38;5082373;28;20035;-69
2022/02/24 06:23:48;;;;;;;6.03;3.93;;;;;;;6.66;42.26;99897.16;5073352;28;20156;-70
2022/02/24 06:26:14;;;;;;;5.23;3.50;;;;;;;6.82;42.11;99906.34;5071527;28;20062;-68
2022/02/24 06:28:40;;;;;;;5.43;3.37;;;;;;;6.79;42.16;99898.69;5066951;28;20153;-70
2022/02/24 06:31:07;;;;;;;6.37;3.93;;;;;;;6.86;41.54;99912.19;5101970;28;20122;-69
2022/02/24 06:33:34;;;;;;;6.30;3.57;;;;;;;6.98;41.54;99900.59;5084024;28;20515;-69
2022/02/24 06:36:01;;;;;;;5.77;3.90;;;;;;;7.11;41.33;99916.25;5083696;28;20042;-69
2022/02/24 06:38:27;;;;;;;5.80;3.77;;;;;;;7.04;41.00;99915.09;5064594;28;20142;-70
2022/02/24 06:40:53;;;;;;;6.47;3.80;;;;;;;7.14;41.38;99908.91;5079908;28;20032;-69
2022/02/24 06:43:20;;;;;;;5.97;3.50;;;;;;;7.14;41.03;99916.00;5063826;28;20045;-68
2022/02/24 06:45:46;;;;;;;5.10;3.30;;;;;;;7.27;40.56;99927.22;5100977;28;20075;-70
2022/02/24 06:48:12;;;;;;;3.80;2.80;;;;;;;7.17;40.48;99916.56;5045722;28;20146;-67
2022/02/24 06:50:38;;;;;;;4.13;3.03;;;;;;;7.19;40.39;99929.66;5078873;28;20515;-70
2022/02/24 06:53:04;;;;;;;4.97;2.77;;;;;;;7.10;40.28;99927.78;5039766;28;20582;-71
2022/02/24 06:55:30;;;;;;;7.77;3.07;;;;;;;7.23;40.22;99925.78;5071950;28;20130;-71
2022/02/24 06:57:56;;;;;;;4.57;3.23;;;;;;;7.32;40.33;99940.88;5071270;28;20044;-71
2022/02/24 07:00:23;;;;;;;27.90;13.10;;;;;;;7.42;40.23;99920.59;5056930;28;20043;-71
2022/02/24 07:02:49;;;;;;;4.43;3.63;;;;;;;7.39;39.79;99945.50;5073448;28;20144;-70
2022/02/24 07:05:15;;;;;;;8.10;3.03;;;;;;;7.42;39.40;99933.81;5025010;28;20511;-71
2022/02/24 07:07:40;;;;;;;8.70;3.27;;;;;;;7.44;39.29;99939.81;5055527;28;20422;-71
2022/02/24 07:10:14;;;;;;;5.93;3.10;;;;;;;7.72;39.57;99947.06;5039482;28;20072;-71
2022/02/24 07:12:45;;;;;;;5.13;3.17;;;;;;;7.80;39.02;99948.06;5057648;28;20066;-71
2022/02/24 07:15:12;;;;;;;7.80;3.20;;;;;;;7.86;38.97;99951.97;5023565;28;20123;-71
2022/02/24 07:17:44;;;;;;;5.35;3.58;;;;;;;8.06;39.18;99953.72;5057066;28;20051;-71
2022/02/24 07:20:10;;;;;;;;;;;;;;;8.22;38.66;99960.22;5040267;28;20094;-69
2022/02/24 07:22:36;;;;;;;6.60;3.60;;;;;;;8.02;38.90;99954.97;5055918;28;19919;-71
2022/02/24 07:25:03;;;;;;;4.43;3.35;;;;;;;7.96;38.97;99942.28;5071938;28;20583;-69
2022/02/24 07:27:29;;;;;;;8.63;3.38;;;;;;;7.86;38.87;99946.69;5056069;28;20480;-70
2022/02/24 07:29:57;;;;;;;3.92;3.20;;;;;;;7.73;38.72;99936.34;5071806;28;20376;-69
2022/02/24 07:32:23;;;;;;;5.25;3.65;;;;;;;7.15;40.25;99938.81;5056010;28;20095;-69
2022/02/24 07:34:49;;;;;;;4.07;2.90;;;;;;;7.34;39.51;99941.56;5055358;28;20040;-69
2022/02/24 07:37:15;;;;;;;5.88;3.13;;;;;;;7.40;39.37;99944.53;5055325;28;20051;-70
2022/02/24 07:39:41;;;;;;;4.25;3.30;;;;;;;7.40;39.57;99967.47;5022191;28;20054;-69
2022/02/24 07:42:07;;;;;;;6.43;3.10;;;;;;;7.49;39.60;99967.53;5022212;28;20055;-69
2022/02/24 07:44:33;;;;;;;11.07;3.67;;;;;;;7.49;39.48;99967.53;5055139;28;20044;-68
2022/02/24 07:46:59;;;;;;;4.75;3.33;;;;;;;7.60;39.41;99964.81;5038003;28;20629;-69
2022/02/24 07:49:26;;;;;;;4.35;3.10;;;;;;;7.44;39.59;99953.84;5038549;28;20048;-69
2022/02/24 07:51:52;;;;;;;5.63;3.40;;;;;;;7.26;39.80;99973.09;5071799;28;20047;-70
2022/02/24 07:54:21;;;;;;;5.40;3.85;;;;;;;7.49;40.10;99972.81;5072077;28;20531;-69
2022/02/24 07:56:47;;;;;;;6.23;3.53;;;;;;;7.17;40.26;99974.69;5054726;28;20078;-70
2022/02/24 07:59:13;;;;;;;7.13;3.28;;;;;;;7.23;40.35;99973.31;5054977;28;20048;-70
2022/02/24 08:01:40;;;;;;;5.97;3.70;;;;;;;7.13;40.90;99986.50;5071824;28;20067;-69
2022/02/24 08:04:06;;;;;;;6.13;3.27;;;;;;;6.78;40.96;99983.28;5038675;28;20142;-70
2022/02/24 08:06:32;;;;;;;8.37;3.47;;;;;;;6.56;40.71;99978.06;5070964;28;20543;-69
2022/02/24 08:08:58;;;;;;;5.90;3.37;;;;;;;6.26;41.35;99969.97;5037599;28;20526;-69
2022/02/24 08:11:24;;;;;;;6.53;3.20;;;;;;;6.70;40.70;99991.00;5054353;28;20043;-70
2022/02/24 08:13:49;;;;;;;5.23;3.30;;;;;;;6.72;40.10;99987.25;5037953;28;20044;-69
2022/02/24 08:16:15;;;;;;;5.77;3.53;;;;;;;6.38;41.04;99992.75;5021836;28;20040;-69
2022/02/24 08:18:41;;;;;;;4.70;3.40;;;;;;;6.04;41.57;99972.66;5038110;28;20474;-70
2022/02/24 08:21:07;;;;;;;5.20;3.90;;;;;;;6.07;41.68;99991.72;5038479;28;20131;-70
2022/02/24 08:23:33;;;;;;;4.27;3.70;;;;;;;6.38;41.39;100001.47;5037889;28;20054;-69
2022/02/24 08:25:59;;;;;;;4.93;3.50;;;;;;;6.20;41.47;99997.69;5038102;28;20385;-69
2022/02/24 08:28:25;;;;;;;5.57;3.23;;;;;;;6.50;41.61;99997.84;5038100;28;20089;-69
2022/02/24 08:30:52;;;;;;;4.87;3.40;;;;;;;6.50;40.90;99989.94;5054379;28;20123;-69
2022/02/24 08:33:18;;;;;;;4.60;2.87;;;;;;;6.24;40.64;100000.94;5071743;28;20101;-69
2022/02/24 08:35:44;;;;;;;3.90;3.00;;;;;;;6.14;40.53;100010.50;5037715;28;20122;-70
2022/02/24 08:38:10;;;;;;;4.60;3.20;;;;;;;6.40;40.30;100004.84;5070969;28;20060;-69
2022/02/24 08:40:35;;;;;;;4.73;2.77;;;;;;;6.66;39.65;100016.78;5021695;28;20411;-68
2022/02/24 08:43:01;;;;;;;4.60;3.07;;;;;;;6.68;39.21;100001.66;5037912;28;20055;-69
2022/02/24 08:45:29;;;;;;;3.87;2.90;;;;;;;6.72;39.74;100011.00;5038544;28;20040;-70
2022/02/24 08:47:54;;;;;;;4.43;2.87;;;;;;;6.71;39.16;99988.22;5070794;28;20394;-70
2022/02/24 08:50:21;;;;;;;4.17;3.17;;;;;;;6.80;39.54;100013.88;5037655;28;20040;-69
2022/02/24 08:52:47;;;;;;;6.23;3.60;;;;;;;6.76;39.04;100011.59;5054396;28;20051;-67
2022/02/24 08:55:13;;;;;;;6.70;3.40;;;;;;;6.71;39.35;100008.50;5054264;28;20083;-71
2022/02/24 08:57:39;;;;;;;5.83;3.17;;;;;;;6.56;39.34;100005.31;5020700;28;20059;-69
2022/02/24 09:00:07;;;;;;;4.33;3.40;;;;;;;6.39;39.77;100008.47;5037504;28;20455;-69
2022/02/24 09:02:33;;;;;;;4.90;3.40;;;;;;;6.31;40.48;100012.66;5037514;28;20097;-69
2022/02/24 09:05:00;;;;;;;4.33;3.10;;;;;;;6.50;39.84;100011.03;5037749;28;20043;-71
2022/02/24 09:07:27;;;;;;;5.20;3.03;;;;;;;6.28;39.06;100011.09;5037315;28;20044;-71
2022/02/24 09:09:53;;;;;;;3.93;2.70;;;;;;;6.20;39.04;99983.66;5052827;28;20044;-71
2022/02/24 09:12:20;;;;;;;3.27;2.70;;;;;;;6.72;38.71;100003.09;5036357;28;20032;-71
2022/02/24 09:14:46;;;;;;;4.20;2.83;;;;;;;6.02;38.02;99935.88;5037075;28;20044;-71
2022/02/24 09:17:11;;;;;;;6.37;2.83;;;;;;;6.66;37.99;100008.88;5053483;28;20061;-71
2022/02/24 09:19:39;;;;;;;4.27;2.77;;;;;;;6.64;38.01;100008.13;5019706;28;20193;-71
2022/02/24 09:22:06;;;;;;;2.93;2.60;;;;;;;6.48;38.07;99994.53;5054191;28;20044;-71
2022/02/24 09:24:33;;;;;;;3.93;2.40;;;;;;;6.25;38.31;100008.72;5070726;28;20690;-71
2022/02/24 09:26:59;;;;;;;4.37;2.60;;;;;;;5.80;38.66;100003.53;5088838;28;20093;-71
2022/02/24 09:29:25;;;;;;;4.03;2.87;;;;;;;5.31;39.12;99945.03;5069738;28;20097;-71
2022/02/24 09:31:51;;;;;;;5.23;2.90;;;;;;;6.06;38.18;100021.66;5036281;28;20047;-70
2022/02/24 09:34:17;;;;;;;2.83;2.10;;;;;;;6.30;36.97;100003.06;5054162;28;20384;-68
2022/02/24 09:36:43;;;;;;;3.93;1.60;;;;;;;6.07;36.99;100012.81;5021589;28;20086;-71
2022/02/24 09:39:09;;;;;;;2.73;2.07;;;;;;;6.10;37.12;100014.34;5020844;28;20047;-70
2022/02/24 09:41:35;;;;;;;2.33;1.80;;;;;;;6.26;37.14;100028.84;5053556;28;20035;-71
2022/02/24 09:44:01;;;;;;;3.10;2.03;;;;;;;6.55;36.36;100023.91;5053697;28;20048;-70
2022/02/24 09:46:27;;;;;;;5.47;2.43;;;;;;;6.33;36.25;99995.75;5020763;28;20073;-70
2022/02/24 09:48:55;;;;;;;2.80;1.90;;;;;;;6.36;35.97;99953.31;5036615;28;20546;-68
2022/02/24 09:51:24;;;;;;;3.80;1.90;;;;;;;6.47;35.81;100026.31;5053667;28;20093;-65
2022/02/24 09:53:53;;;;;;;4.87;2.10;;;;;;;6.54;35.73;100011.66;5023206;28;20040;-70
2022/02/24 09:56:23;;;;;;;5.33;2.50;;;;;;;6.98;35.77;100019.41;5022499;28;20085;-67
2022/02/24 09:58:50;;;;;;;3.40;2.33;;;;;;;6.97;35.02;100001.06;5069934;28;20058;-65
2022/02/24 10:01:17;;;;;;;5.63;2.50;;;;;;;7.20;34.52;100015.84;5069543;28;20054;-67
2022/02/24 10:03:47;;;;;;;2.87;2.33;;;;;;;7.40;34.50;100030.88;5069419;28;20044;-71
2022/02/24 10:06:15;;;;;;;4.43;1.97;;;;;;;7.66;33.88;100029.50;5053728;28;20044;-72
2022/02/24 10:08:43;;;;;;;3.27;2.10;;;;;;;8.02;33.16;100026.38;5055337;28;20055;-70
2022/02/24 10:11:24;;;;;;;1.98;1.70;;;;;;;8.33;31.96;100028.06;5020015;28;20040;-67
2022/02/24 10:14:15;;;;;;;11.80;7.18;;;;;;;8.44;31.71;100015.56;5053573;28;20063;-66
2022/02/24 10:17:04;;;;;;;5.05;2.67;;;;;;;8.34;31.27;99998.84;5037734;28;20090;-67
2022/02/24 10:19:47;;;;;;;3.75;2.17;;;;;;;8.71;31.77;100029.97;5036607;28;20253;-68
2022/02/24 10:22:34;;;;;;;4.65;2.20;;;;;;;8.44;31.58;100035.91;5087551;28;20040;-72
2022/02/24 10:25:05;;;;;;;3.08;1.67;;;;;;;8.75;30.44;100026.91;5037754;28;20067;-67
2022/02/24 10:27:33;;;;;;;2.22;1.30;;;;;;;8.78;30.04;100026.63;5080765;28;20042;-70
2022/02/24 10:30:03;;;;;;;1.88;1.40;;;;;;;8.79;29.86;100020.38;5032753;28;20040;-68
2022/02/24 10:32:49;;;;;;;4.50;1.45;;;;;;;9.12;30.12;100019.97;5065036;28;20112;-65
2022/02/24 10:35:19;;;;;;;4.55;2.40;;;;;;;8.78;30.24;100025.81;5072515;28;20078;-66
2022/02/24 10:37:55;;;;;;;3.08;1.88;;;;;;;8.91;30.17;100029.03;5056347;28;20484;-65
2022/02/24 10:40:22;;;;;;;3.67;2.03;;;;;;;8.69;30.58;100030.09;5056343;28;20040;-65
2022/02/24 10:42:48;;;;;;;3.45;1.80;;;;;;;8.63;30.05;100028.00;5055944;28;20047;-64
2022/02/24 10:45:17;;;;;;;16.67;2.17;;;;;;;8.56;30.33;100022.41;5056750;28;20040;-67
2022/02/24 10:47:56;;;;;;;2.67;1.67;;;;;;;8.86;29.85;100029.44;5063826;28;20040;-68
2022/02/24 10:51:03;;;;;;;3.17;1.80;;;;;;;8.94;29.86;100021.66;5054089;28;20036;-67
2022/02/24 10:53:31;;;;;;;2.55;1.80;;;;;;;8.50;30.16;100001.78;5054391;28;20412;-66
2022/02/24 10:56:03;;;;;;;2.00;1.80;;;;;;;8.64;30.39;100019.09;5053200;28;20038;-65
2022/02/24 10:58:41;;;;;;;11.02;2.20;;;;;;;8.84;30.12;100025.25;5070576;28;20613;-65
2022/02/24 11:01:17;;;;;;;17.85;8.80;;;;;;;9.01;30.05;100028.06;5047767;28;20811;-67
2022/02/24 11:03:46;;;;;;;5.93;3.05;;;;;;;8.97;30.21;100029.31;5064516;28;20035;-72
2022/02/24 11:06:12;;;;;;;3.65;2.42;;;;;;;8.72;30.23;100024.53;5099659;28;20124;-66
2022/02/24 11:08:39;;;;;;;2.45;2.08;;;;;;;8.84;30.60;100022.63;5078509;28;20052;-65
2022/02/24 11:11:06;;;;;;;3.20;2.00;;;;;;;8.89;29.99;100007.16;5062830;28;20043;-66
2022/02/24 11:13:33;;;;;;;3.95;1.92;;;;;;;9.03;30.13;100023.47;5071708;28;20036;-66
2022/02/24 11:15:59;;;;;;;3.45;2.10;;;;;;;8.91;30.39;100035.16;5076741;28;20044;-66
2022/02/24 11:18:26;;;;;;;3.72;2.15;;;;;;;8.71;30.58;100004.34;5061961;28;20467;-66
2022/02/24 11:20:53;;;;;;;3.05;2.08;;;;;;;8.72;30.89;100036.97;5079313;28;20031;-67
2022/02/24 11:23:19;;;;;;;4.43;1.98;;;;;;;8.56;30.93;100037.47;5038453;28;20070;-67
2022/02/24 11:26:21;;;;;;;8.63;2.15;;;;;;;8.56;31.14;100034.84;5036072;28;20040;-66
2022/02/24 11:28:49;;;;;;;4.63;2.78;;;;;;;8.25;31.74;100039.34;4994578;28;20044;-68
2022/02/24 11:31:29;;;;;;;5.97;2.83;;;;;;;8.56;31.47;100045.41;5069730;28;20083;-66
2022/02/24 11:33:55;;;;;;;4.25;2.47;;;;;;;8.29;31.67;100037.22;5035601;28;20036;-66
2022/02/24 11:36:22;;;;;;;4.35;2.08;;;;;;;8.30;31.75;100042.38;5069525;28;20054;-66
2022/02/24 11:39:10;;;;;;;6.57;2.70;;;;;;;8.62;31.60;100041.38;5050256;28;20093;-68